createdAt,value
2022-11-28T00:01:29.809Z,10.87
2022-11-28T00:03:57.427Z,10.70
2022-11-28T00:06:26.068Z,10.17
2022-11-28T00:08:54.184Z,10.87
2022-11-28T00:11:21.742Z,11.07
2022-11-28T00:13:49.349Z,10.13
2022-11-28T00:16:21.670Z,10.10
2022-11-28T00:18:50.824Z,11.30
2022-11-28T00:21:19.493Z,11.27
2022-11-28T00:23:48.700Z,10.50
2022-11-28T00:26:20.865Z,10.20
2022-11-28T00:28:48.478Z,10.63
2022-11-28T00:31:24.876Z,11.07
2022-11-28T00:33:53.141Z,10.87
2022-11-28T00:36:21.557Z,10.27
2022-11-28T00:38:50.238Z,10.23
2022-11-28T00:41:23.826Z,10.70
2022-11-28T00:43:52.089Z,10.73
2022-11-28T00:46:21.471Z,10.87
2022-11-28T00:48:49.308Z,10.47
2022-11-28T00:51:18.391Z,10.67
2022-11-28T00:53:48.063Z,10.27
2022-11-28T00:56:18.711Z,9.90
2022-11-28T00:58:49.511Z,10.53
2022-11-28T01:01:23.610Z,10.67
2022-11-28T01:03:53.115Z,10.00
2022-11-28T01:06:32.746Z,10.60
2022-11-28T01:09:02.330Z,10.83
2022-11-28T01:11:30.137Z,9.90
2022-11-28T01:14:00.080Z,9.53
2022-11-28T01:16:29.074Z,10.03
2022-11-28T01:18:57.186Z,9.50
2022-11-28T01:21:30.213Z,9.57
2022-11-28T01:23:58.024Z,9.23
2022-11-28T01:26:28.348Z,9.40
2022-11-28T01:28:56.248Z,9.57
2022-11-28T01:31:26.719Z,9.90
2022-11-28T01:33:55.558Z,9.37
2022-11-28T01:36:23.658Z,9.97
2022-11-28T01:38:52.033Z,9.43
2022-11-28T01:41:25.703Z,9.30
2022-11-28T01:44:05.871Z,9.23
2022-11-28T01:46:34.506Z,9.70
2022-11-28T01:49:17.401Z,10.00
2022-11-28T01:51:50.237Z,9.30
2022-11-28T01:54:20.611Z,9.80
2022-11-28T01:56:52.811Z,9.60
2022-11-28T01:59:21.465Z,9.50
2022-11-28T02:01:49.205Z,9.77
2022-11-28T02:04:16.833Z,9.37
2022-11-28T02:06:44.851Z,8.83
2022-11-28T02:09:14.085Z,9.43
2022-11-28T02:11:57.605Z,9.00
2022-11-28T02:14:44.287Z,9.23
2022-11-28T02:17:28.288Z,8.73
2022-11-28T02:20:07.629Z,8.90
2022-11-28T02:23:03.255Z,9.10
2022-11-28T02:25:42.870Z,9.63
2022-11-28T02:28:22.069Z,8.53
2022-11-28T02:31:23.554Z,8.80
2022-11-28T02:33:59.194Z,9.40
2022-11-28T02:36:43.073Z,9.13
2022-11-28T02:39:16.411Z,8.73
2022-11-28T02:42:01.091Z,9.07
2022-11-28T02:44:52.591Z,9.17
2022-11-28T02:47:37.793Z,9.53
2022-11-28T02:50:26.332Z,8.98
2022-11-28T02:53:10.324Z,9.17
2022-11-28T02:55:40.479Z,9.43
2022-11-28T02:58:09.704Z,9.20
2022-11-28T03:00:40.578Z,8.80
2022-11-28T03:03:13.931Z,9.17
2022-11-28T03:05:57.393Z,9.10
2022-11-28T03:08:36.626Z,9.17
2022-11-28T03:11:21.560Z,9.20
2022-11-28T03:14:05.117Z,9.53
2022-11-28T03:16:49.495Z,9.40
2022-11-28T03:19:25.630Z,9.43
2022-11-28T03:22:10.184Z,9.20
2022-11-28T03:24:44.735Z,9.90
2022-11-28T03:27:16.834Z,9.80
2022-11-28T03:29:51.703Z,9.80
2022-11-28T03:32:28.294Z,9.17
2022-11-28T03:35:05.999Z,9.83
2022-11-28T03:37:37.868Z,9.73
2022-11-28T03:40:10.911Z,10.50
2022-11-28T03:42:54.367Z,10.33
2022-11-28T03:45:25.511Z,9.53
2022-11-28T03:48:00.910Z,10.10
2022-11-28T03:50:44.482Z,10.33
2022-11-28T03:53:20.187Z,10.07
2022-11-28T03:56:02.162Z,10.00
2022-11-28T03:58:55.288Z,9.80
2022-11-28T04:01:31.509Z,9.63
2022-11-28T04:04:18.147Z,10.87
2022-11-28T04:07:09.239Z,10.50
2022-11-28T04:09:42.043Z,11.00
2022-11-28T04:12:23.705Z,10.87
2022-11-28T04:15:02.533Z,10.70
2022-11-28T04:18:18.048Z,10.53
2022-11-28T04:25:39.741Z,10.87
2022-11-28T04:28:48.418Z,11.17
2022-11-28T04:35:56.600Z,11.40
2022-11-28T04:39:07.530Z,11.37
2022-11-28T04:42:08.215Z,11.57
2022-11-28T04:48:22.571Z,11.30
2022-11-28T04:51:15.359Z,11.80
2022-11-28T04:57:57.306Z,11.30
2022-11-28T05:00:50.126Z,11.50
2022-11-28T05:03:43.078Z,11.53
2022-11-28T05:07:09.293Z,12.17
2022-11-28T05:10:09.913Z,11.87
2022-11-28T05:12:57.668Z,11.60
2022-11-28T05:22:07.307Z,12.70
2022-11-28T05:24:52.957Z,12.53
2022-11-28T05:27:26.398Z,11.60
2022-11-28T05:29:53.971Z,11.77
2022-11-28T05:32:21.857Z,11.13
2022-11-28T05:34:49.480Z,11.87
2022-11-28T05:37:17.096Z,12.00
2022-11-28T05:39:44.894Z,12.90
2022-11-28T05:42:12.907Z,11.83
2022-11-28T05:44:40.503Z,11.30
2022-11-28T05:47:08.256Z,12.03
2022-11-28T05:49:35.893Z,11.77
2022-11-28T05:52:03.606Z,11.33
2022-11-28T05:54:31.552Z,12.20
2022-11-28T05:56:59.286Z,11.73
2022-11-28T05:59:26.977Z,12.17
2022-11-28T06:01:54.529Z,12.60
2022-11-28T06:04:22.224Z,12.80
2022-11-28T06:06:51.112Z,12.50
2022-11-28T06:09:23.230Z,11.53
2022-11-28T06:11:53.368Z,12.23
2022-11-28T06:14:20.994Z,11.67
2022-11-28T06:16:51.053Z,12.50
2022-11-28T06:19:18.836Z,12.33
2022-11-28T06:21:46.714Z,12.10
2022-11-28T06:24:14.569Z,11.97
2022-11-28T06:26:42.182Z,11.87
2022-11-28T06:29:09.786Z,13.23
2022-11-28T06:31:37.499Z,11.43
2022-11-28T06:34:05.243Z,11.60
2022-11-28T06:36:33.026Z,12.10
2022-11-28T06:39:03.669Z,11.63
2022-11-28T06:41:31.255Z,12.67
2022-11-28T06:43:58.863Z,11.57
2022-11-28T06:46:26.522Z,11.50
2022-11-28T06:48:54.291Z,12.20
2022-11-28T06:51:22.195Z,11.67
2022-11-28T06:53:50.827Z,13.17
2022-11-28T06:56:20.049Z,12.43
2022-11-28T06:58:53.453Z,12.57
2022-11-28T07:01:22.993Z,13.17
2022-11-28T07:03:59.471Z,12.03
2022-11-28T07:06:30.070Z,12.73
2022-11-28T07:09:00.950Z,12.47
2022-11-28T07:11:31.447Z,12.47
2022-11-28T07:14:08.243Z,13.60
2022-11-28T07:16:36.115Z,12.27
2022-11-28T07:19:04.281Z,12.50
2022-11-28T07:21:32.541Z,12.00
2022-11-28T07:24:00.755Z,11.60
2022-11-28T07:26:28.502Z,12.63
2022-11-28T07:28:58.190Z,11.97
2022-11-28T07:31:28.713Z,12.23
2022-11-28T07:33:56.382Z,12.03
2022-11-28T07:36:26.760Z,11.83
2022-11-28T07:38:57.112Z,14.73
2022-11-28T07:41:26.894Z,11.63
2022-11-28T07:44:00.450Z,12.10
2022-11-28T07:46:29.627Z,11.90
2022-11-28T07:48:57.555Z,12.27
2022-11-28T07:51:28.450Z,11.73
2022-11-28T07:53:56.312Z,11.70
2022-11-28T07:56:35.028Z,11.63
2022-11-28T07:59:07.838Z,10.80
2022-11-28T08:01:36.476Z,10.77
2022-11-28T08:04:06.906Z,11.10
2022-11-28T08:06:39.892Z,10.53
2022-11-28T08:09:08.212Z,10.63
2022-11-28T08:11:36.239Z,11.03
2022-11-28T08:14:05.204Z,10.83
2022-11-28T08:16:32.899Z,10.33
2022-11-28T08:19:02.062Z,10.67
2022-11-28T08:21:32.322Z,10.70
2022-11-28T08:24:02.267Z,10.87
2022-11-28T08:26:31.948Z,10.17
2022-11-28T08:29:01.281Z,9.43
2022-11-28T08:31:32.748Z,10.73
2022-11-28T08:34:02.321Z,10.20
2022-11-28T08:36:30.091Z,10.27
2022-11-28T08:39:23.580Z,10.00
2022-11-28T08:41:59.736Z,10.03
2022-11-28T08:44:30.394Z,11.20
2022-11-28T08:46:58.247Z,10.57
2022-11-28T08:49:33.342Z,11.07
2022-11-28T08:52:14.349Z,10.20
2022-11-28T08:54:42.210Z,10.77
2022-11-28T08:57:21.643Z,10.67
2022-11-28T09:00:19.445Z,10.70
2022-11-28T09:02:49.587Z,9.97
2022-11-28T09:05:38.143Z,10.47
2022-11-28T09:08:20.711Z,9.83
2022-11-28T09:11:10.013Z,10.77
2022-11-28T09:14:13.172Z,10.80
2022-11-28T09:16:41.459Z,10.47
2022-11-28T09:19:33.438Z,12.70
2022-11-28T09:22:25.130Z,10.17
2022-11-28T09:24:55.739Z,10.33
2022-11-28T09:27:23.350Z,9.90
2022-11-28T09:29:51.020Z,10.33
2022-11-28T09:32:18.611Z,10.67
2022-11-28T09:35:28.196Z,10.43
2022-11-28T09:38:32.303Z,10.73
2022-11-28T09:41:22.733Z,11.17
2022-11-28T09:43:54.984Z,11.30
2022-11-28T09:46:29.820Z,11.40
2022-11-28T09:49:02.005Z,11.17
2022-11-28T09:51:51.265Z,10.23
2022-11-28T09:54:42.793Z,11.17
2022-11-28T09:57:59.833Z,10.73
2022-11-28T10:01:30.868Z,11.03
2022-11-28T10:04:21.632Z,10.33
2022-11-28T10:07:25.602Z,11.40
2022-11-28T10:16:55.416Z,11.47
2022-11-28T10:20:05.231Z,11.13
2022-11-28T10:23:27.859Z,11.30
2022-11-28T10:26:41.320Z,11.77
2022-11-28T10:33:53.795Z,11.63
2022-11-28T10:37:14.939Z,11.97
2022-11-28T10:40:21.234Z,13.07
2022-11-28T10:46:41.859Z,12.50
2022-11-28T10:49:51.647Z,11.60
2022-11-28T10:53:14.733Z,11.93
2022-11-28T10:56:30.113Z,12.23
2022-11-28T11:02:50.755Z,12.47
2022-11-28T11:06:11.815Z,11.57
2022-11-28T11:08:55.299Z,11.70
2022-11-28T11:12:04.876Z,11.13
2022-11-28T11:18:05.691Z,12.07
2022-11-28T11:21:40.756Z,12.50
2022-11-28T11:25:05.483Z,12.47
2022-11-28T11:27:40.513Z,12.10
2022-11-28T11:30:45.060Z,12.57
2022-11-28T11:34:17.280Z,12.80
2022-11-28T11:37:03.550Z,11.90
2022-11-28T11:40:12.459Z,12.30
2022-11-28T11:43:16.784Z,12.73
2022-11-28T11:46:17.343Z,12.53
2022-11-28T11:49:13.471Z,13.23
2022-11-28T11:55:12.413Z,13.50
2022-11-28T11:58:09.864Z,12.63
2022-11-28T12:01:32.501Z,12.87
2022-11-28T12:04:51.071Z,12.57
2022-11-28T12:08:12.623Z,12.83
2022-11-28T12:11:31.645Z,12.83
2022-11-28T12:14:51.356Z,13.30
2022-11-28T12:18:17.670Z,13.03
2022-11-28T12:21:13.440Z,14.03
2022-11-28T12:24:12.515Z,13.37
2022-11-28T12:30:13.591Z,14.57
2022-11-28T12:33:12.787Z,13.57
2022-11-28T12:36:13.862Z,13.67
2022-11-28T12:39:12.349Z,13.63
2022-11-28T12:42:24.112Z,13.30
2022-11-28T12:49:01.272Z,14.40
2022-11-28T12:52:04.332Z,14.17
2022-11-28T12:55:16.446Z,14.50
2022-11-28T13:04:57.193Z,14.27
2022-11-28T13:11:58.247Z,15.37
2022-11-28T13:15:09.141Z,16.07
2022-11-28T13:22:27.788Z,15.03
2022-11-28T13:28:43.034Z,14.17
2022-11-28T13:31:48.187Z,14.63
2022-11-28T13:34:24.109Z,20.10
2022-11-28T13:41:52.731Z,20.57
2022-11-28T13:44:31.542Z,15.37
2022-11-28T13:47:21.756Z,16.03
2022-11-28T13:49:49.524Z,16.10
2022-11-28T13:52:20.165Z,15.50
2022-11-28T13:54:50.569Z,15.63
2022-11-28T13:57:29.240Z,15.07
2022-11-28T14:00:27.836Z,15.73
2022-11-28T14:02:59.985Z,15.57
2022-11-28T14:05:41.680Z,14.93
2022-11-28T14:08:29.818Z,16.33
2022-11-28T14:11:27.995Z,15.13
2022-11-28T14:14:07.765Z,15.40
2022-11-28T14:16:51.607Z,16.00
2022-11-28T14:19:37.550Z,15.50
2022-11-28T14:22:23.684Z,15.43
2022-11-28T14:25:11.552Z,15.23
2022-11-28T14:27:47.133Z,15.57
2022-11-28T14:30:34.993Z,15.97
2022-11-28T14:33:38.417Z,15.17
2022-11-28T14:40:47.144Z,17.23
2022-11-28T14:43:23.743Z,15.93
2022-11-28T14:45:52.729Z,16.40
2022-11-28T14:48:23.183Z,16.77
2022-11-28T14:51:01.018Z,15.60
2022-11-28T14:53:36.274Z,15.53
2022-11-28T14:56:30.593Z,16.43
2022-11-28T14:59:03.477Z,16.20
2022-11-28T15:01:43.840Z,16.13
2022-11-28T15:04:23.445Z,18.03
2022-11-28T15:06:51.722Z,18.37
2022-11-28T15:09:37.174Z,16.93
2022-11-28T15:12:31.842Z,18.77
2022-11-28T15:15:00.083Z,17.60
2022-11-28T15:17:33.398Z,17.63
2022-11-28T15:20:13.225Z,17.77
2022-11-28T15:22:43.004Z,17.77
2022-11-28T17:14:22.242Z,19.10
2022-11-28T17:16:50.099Z,18.97
2022-11-28T17:19:18.065Z,18.90
2022-11-28T17:21:50.680Z,20.20
2022-11-28T17:24:26.476Z,19.90
2022-11-28T17:26:55.028Z,19.33
2022-11-28T17:29:23.028Z,19.67
2022-11-28T17:31:50.842Z,18.67
2022-11-28T17:34:26.772Z,18.67
2022-11-28T17:36:54.473Z,19.10
2022-11-28T17:39:22.288Z,18.93
2022-11-28T17:44:37.571Z,19.17
2022-11-28T17:47:05.598Z,19.73
2022-11-28T17:49:33.562Z,20.13
2022-11-28T17:52:03.883Z,20.03
2022-11-28T17:54:47.357Z,18.77
2022-11-28T18:00:43.076Z,17.57
2022-11-28T18:03:20.281Z,19.80
2022-11-28T18:05:49.504Z,20.13
2022-11-28T18:08:22.138Z,20.03
2022-11-28T18:10:50.376Z,20.53
2022-11-28T18:13:21.011Z,19.60
2022-11-28T18:15:52.913Z,20.13
2022-11-28T18:18:20.547Z,20.07
2022-11-28T18:20:48.238Z,20.10
2022-11-28T18:23:15.829Z,19.97
2022-11-28T18:25:44.482Z,20.93
2022-11-28T18:28:18.571Z,20.90
2022-11-28T18:30:49.115Z,21.70
2022-11-28T18:33:16.882Z,20.83
2022-11-28T18:35:47.740Z,21.10
2022-11-28T18:38:18.178Z,22.20
2022-11-28T18:40:45.727Z,22.50
2022-11-28T18:43:13.308Z,23.63
2022-11-28T18:45:40.930Z,22.33
2022-11-28T18:48:08.583Z,22.30
2022-11-28T18:50:36.223Z,23.87
2022-11-28T18:53:03.852Z,22.57
2022-11-28T18:55:31.393Z,22.67
2022-11-28T18:57:59.767Z,22.73
2022-11-28T19:00:27.423Z,21.93
2022-11-28T19:02:55.231Z,22.00
2022-11-28T19:05:22.810Z,22.67
2022-11-28T19:07:50.475Z,22.07
2022-11-28T19:10:18.185Z,23.40
2022-11-28T19:12:46.057Z,23.60
2022-11-28T19:15:13.738Z,23.20
2022-11-28T19:17:41.351Z,22.07
2022-11-28T19:20:11.010Z,23.53
2022-11-28T19:22:38.576Z,23.43
2022-11-28T19:25:06.854Z,22.73
2022-11-28T19:27:34.517Z,23.87
2022-11-28T19:30:02.208Z,23.50
2022-11-28T19:32:29.888Z,23.90
2022-11-28T19:34:57.518Z,24.13
2022-11-28T19:37:25.098Z,24.43
2022-11-28T19:39:52.662Z,23.53
2022-11-28T19:42:20.228Z,24.30
2022-11-28T19:44:47.812Z,23.77
2022-11-28T19:47:15.381Z,23.77
2022-11-28T19:49:43.194Z,23.70
2022-11-28T19:52:11.096Z,23.30
2022-11-28T19:54:38.717Z,23.93
2022-11-28T19:57:10.364Z,24.03
2022-11-28T19:59:37.992Z,24.53
2022-11-28T20:02:06.188Z,24.53
2022-11-28T20:04:33.841Z,23.53
2022-11-28T20:07:01.405Z,24.40
2022-11-28T20:09:29.059Z,22.47
2022-11-28T20:11:56.677Z,24.03
2022-11-28T20:14:24.248Z,23.90
2022-11-28T20:16:51.950Z,23.20
2022-11-28T20:19:21.853Z,23.03
2022-11-28T20:21:49.385Z,23.27
2022-11-28T20:24:19.153Z,22.97
2022-11-28T20:26:47.103Z,24.80
2022-11-28T20:29:16.803Z,23.70
2022-11-28T20:31:46.563Z,23.53
2022-11-28T20:34:15.604Z,25.47
2022-11-28T20:36:43.733Z,24.97
2022-11-28T20:39:12.330Z,23.20
2022-11-28T20:41:40.044Z,24.57
2022-11-28T20:44:08.208Z,24.27
2022-11-28T20:46:35.925Z,23.63
2022-11-28T20:49:05.649Z,23.63
2022-11-28T20:51:34.933Z,25.43
2022-11-28T20:54:04.750Z,24.83
2022-11-28T20:56:46.499Z,24.70
2022-11-28T20:59:22.799Z,23.20
2022-11-28T21:01:50.734Z,23.83
2022-11-28T21:04:18.910Z,22.23
2022-11-28T21:06:48.909Z,23.70
2022-11-28T21:09:18.451Z,22.20
2022-11-28T21:12:02.844Z,22.90
2022-11-28T21:14:30.504Z,23.63
2022-11-28T21:16:58.873Z,24.97
2022-11-28T21:19:26.600Z,23.87
2022-11-28T21:21:54.308Z,24.30
2022-11-28T21:24:21.955Z,23.67
2022-11-28T21:26:53.506Z,23.47
2022-11-28T21:29:23.566Z,24.60
2022-11-28T21:31:51.744Z,24.47
2022-11-28T21:34:19.628Z,25.67
2022-11-28T21:36:47.766Z,25.63
2022-11-28T21:39:20.344Z,25.47
2022-11-28T21:41:48.406Z,30.80
2022-11-28T21:44:16.080Z,29.90
2022-11-28T21:46:43.762Z,28.63
2022-11-28T21:49:11.356Z,27.17
2022-11-28T21:51:39.065Z,27.13
2022-11-28T21:54:06.733Z,24.83
2022-11-28T21:56:39.803Z,25.60
2022-11-28T21:59:10.151Z,24.67
2022-11-28T22:01:37.823Z,25.47
2022-11-28T22:04:06.270Z,26.23
2022-11-28T22:06:33.993Z,24.93
2022-11-28T22:09:08.629Z,25.20
2022-11-28T22:11:37.100Z,25.60
2022-11-28T22:14:04.991Z,25.90
2022-11-28T22:16:32.771Z,25.63
2022-11-28T22:19:01.131Z,24.93
2022-11-28T22:21:52.285Z,25.30
2022-11-28T22:24:17.126Z,25.40
2022-11-28T22:26:44.714Z,23.97
2022-11-28T22:29:12.342Z,22.07
2022-11-28T22:31:40.052Z,21.40
2022-11-28T22:34:09.217Z,21.40
2022-11-28T22:36:37.547Z,22.50
2022-11-28T22:39:06.124Z,21.53
2022-11-28T22:41:36.202Z,23.70
2022-11-28T22:47:19.620Z,21.77
2022-11-28T22:50:23.871Z,24.50
2022-11-28T22:53:23.509Z,26.00
2022-11-28T22:56:55.684Z,26.03
2022-11-28T22:59:41.843Z,25.50
2022-11-28T23:02:22.783Z,24.73
2022-11-28T23:04:50.473Z,24.37
2022-11-28T23:07:18.093Z,23.70
2022-11-28T23:09:45.749Z,24.13
2022-11-28T23:12:13.334Z,22.13
2022-11-28T23:14:41.080Z,21.17
2022-11-28T23:17:08.768Z,19.73
2022-11-28T23:19:36.330Z,19.37
2022-11-28T23:22:04.604Z,18.10
2022-11-28T23:24:32.128Z,18.67
2022-11-28T23:26:59.751Z,21.87
2022-11-28T23:29:27.304Z,22.47
2022-11-28T23:31:54.917Z,22.70
2022-11-28T23:34:22.543Z,18.40
2022-11-28T23:36:50.124Z,18.23
2022-11-28T23:39:21.617Z,18.13
2022-11-28T23:41:50.202Z,16.80
2022-11-28T23:44:19.037Z,18.20
2022-11-28T23:46:46.938Z,20.33
2022-11-28T23:49:14.927Z,23.17
2022-11-28T23:51:42.636Z,20.80
2022-11-28T23:54:11.856Z,26.10
2022-11-28T23:56:41.132Z,22.40
2022-11-28T23:59:10.318Z,19.90
